Arden, Delaware
Current Conditions -  °F | °C
As of 12:51 AM on Monday 24 Nov 2014 (Local Time) from KILG Reporting Station
Overcast Overcast  
Wind Chill: 54°   Ceiling: 2500
Heat Index: 54°   Visibility: 10mi
Dew Point: 52°   Wind: 5mph
Humidity: 93%   Direction: 90°E
Pressure: 29.9"   Gusts: NA
Location:  39.81°N, 75.49°W
Report Text: KILG 240451Z AUTO 09004KT 10SM FEW014 BKN025 OVC045 12/11 A2990 RMK AO2 RAB31E46 SLP124 P0000 T01220111 401220017
Loading
Personal Weather Stations






























Interactive Weather Map New forecast layout! Learn more

10-Day Weather Forecast

Advertisements
Track Severe Weather on mobile